sensor_id;sensor_type;location;lat;lon;timestamp;P1;durP1;ratioP1;P2;durP2;ratioP2
17985;SDS011;9118;48.122;11.546;2022-12-05T00:00:04;19.87;;;10.30;;
17985;SDS011;9118;48.122;11.546;2022-12-05T00:02:32;20.80;;;10.90;;
17985;SDS011;9118;48.122;11.546;2022-12-05T00:04:59;18.03;;;10.57;;
17985;SDS011;9118;48.122;11.546;2022-12-05T00:07:27;17.83;;;10.10;;
17985;SDS011;9118;48.122;11.546;2022-12-05T00:09:54;19.13;;;10.00;;
17985;SDS011;9118;48.122;11.546;2022-12-05T00:12:21;21.57;;;10.23;;
17985;SDS011;9118;48.122;11.546;2022-12-05T00:14:48;22.43;;;12.87;;
17985;SDS011;9118;48.122;11.546;2022-12-05T00:17:16;17.70;;;9.97;;
17985;SDS011;9118;48.122;11.546;2022-12-05T00:19:43;20.00;;;10.70;;
17985;SDS011;9118;48.122;11.546;2022-12-05T00:22:10;19.00;;;10.57;;
17985;SDS011;9118;48.122;11.546;2022-12-05T00:24:37;17.63;;;10.17;;
17985;SDS011;9118;48.122;11.546;2022-12-05T00:27:04;18.10;;;10.93;;
17985;SDS011;9118;48.122;11.546;2022-12-05T00:29:31;19.50;;;11.00;;
17985;SDS011;9118;48.122;11.546;2022-12-05T00:31:58;18.07;;;10.20;;
17985;SDS011;9118;48.122;11.546;2022-12-05T00:34:27;17.50;;;10.17;;
17985;SDS011;9118;48.122;11.546;2022-12-05T00:36:54;18.27;;;9.67;;
17985;SDS011;9118;48.122;11.546;2022-12-05T00:39:22;17.87;;;9.83;;
17985;SDS011;9118;48.122;11.546;2022-12-05T00:41:50;17.87;;;9.53;;
17985;SDS011;9118;48.122;11.546;2022-12-05T00:44:17;16.93;;;9.57;;
17985;SDS011;9118;48.122;11.546;2022-12-05T00:46:44;16.97;;;9.60;;
17985;SDS011;9118;48.122;11.546;2022-12-05T00:49:11;18.80;;;9.93;;
17985;SDS011;9118;48.122;11.546;2022-12-05T00:51:40;22.17;;;10.00;;
17985;SDS011;9118;48.122;11.546;2022-12-05T00:54:09;17.53;;;10.20;;
17985;SDS011;9118;48.122;11.546;2022-12-05T00:56:37;16.97;;;9.93;;
17985;SDS011;9118;48.122;11.546;2022-12-05T00:59:04;17.90;;;10.17;;
17985;SDS011;9118;48.122;11.546;2022-12-05T01:01:33;18.37;;;9.47;;
17985;SDS011;9118;48.122;11.546;2022-12-05T01:04:06;18.60;;;10.17;;
17985;SDS011;9118;48.122;11.546;2022-12-05T01:06:35;19.63;;;10.77;;
17985;SDS011;9118;48.122;11.546;2022-12-05T01:09:03;16.70;;;9.93;;
17985;SDS011;9118;48.122;11.546;2022-12-05T01:11:31;17.87;;;9.90;;
17985;SDS011;9118;48.122;11.546;2022-12-05T01:13:58;17.93;;;10.33;;
17985;SDS011;9118;48.122;11.546;2022-12-05T01:16:26;17.40;;;9.97;;
17985;SDS011;9118;48.122;11.546;2022-12-05T01:18:55;21.73;;;10.63;;
17985;SDS011;9118;48.122;11.546;2022-12-05T01:21:22;17.80;;;10.30;;
17985;SDS011;9118;48.122;11.546;2022-12-05T01:23:50;18.93;;;10.47;;
17985;SDS011;9118;48.122;11.546;2022-12-05T01:26:19;19.03;;;11.07;;
17985;SDS011;9118;48.122;11.546;2022-12-05T01:28:47;19.93;;;10.57;;
17985;SDS011;9118;48.122;11.546;2022-12-05T01:31:16;19.20;;;10.80;;
17985;SDS011;9118;48.122;11.546;2022-12-05T01:33:47;18.60;;;10.63;;
17985;SDS011;9118;48.122;11.546;2022-12-05T01:36:14;22.13;;;11.37;;
17985;SDS011;9118;48.122;11.546;2022-12-05T01:38:42;20.73;;;11.23;;
17985;SDS011;9118;48.122;11.546;2022-12-05T01:41:13;21.17;;;11.23;;
17985;SDS011;9118;48.122;11.546;2022-12-05T01:43:53;20.87;;;10.50;;
17985;SDS011;9118;48.122;11.546;2022-12-05T01:46:26;21.17;;;11.37;;
17985;SDS011;9118;48.122;11.546;2022-12-05T01:48:56;20.10;;;11.27;;
17985;SDS011;9118;48.122;11.546;2022-12-05T01:51:27;22.77;;;11.77;;
17985;SDS011;9118;48.122;11.546;2022-12-05T01:53:55;20.80;;;12.37;;
17985;SDS011;9118;48.122;11.546;2022-12-05T01:56:22;22.83;;;12.03;;
17985;SDS011;9118;48.122;11.546;2022-12-05T01:58:49;20.23;;;11.33;;
17985;SDS011;9118;48.122;11.546;2022-12-05T02:01:19;21.27;;;11.37;;
17985;SDS011;9118;48.122;11.546;2022-12-05T02:03:47;22.27;;;12.23;;
17985;SDS011;9118;48.122;11.546;2022-12-05T02:06:17;24.03;;;12.47;;
17985;SDS011;9118;48.122;11.546;2022-12-05T02:08:44;21.93;;;12.83;;
17985;SDS011;9118;48.122;11.546;2022-12-05T02:11:12;22.57;;;12.37;;
17985;SDS011;9118;48.122;11.546;2022-12-05T02:13:43;22.17;;;11.60;;
17985;SDS011;9118;48.122;11.546;2022-12-05T02:16:27;23.53;;;12.50;;
17985;SDS011;9118;48.122;11.546;2022-12-05T02:19:07;25.57;;;12.33;;
17985;SDS011;9118;48.122;11.546;2022-12-05T02:22:00;23.17;;;11.53;;
17985;SDS011;9118;48.122;11.546;2022-12-05T02:24:47;22.43;;;12.03;;
17985;SDS011;9118;48.122;11.546;2022-12-05T02:27:38;21.73;;;12.27;;
17985;SDS011;9118;48.122;11.546;2022-12-05T02:30:34;26.07;;;12.43;;
17985;SDS011;9118;48.122;11.546;2022-12-05T02:33:06;23.60;;;11.70;;
17985;SDS011;9118;48.122;11.546;2022-12-05T02:35:44;23.20;;;11.70;;
17985;SDS011;9118;48.122;11.546;2022-12-05T02:38:21;20.87;;;11.87;;
17985;SDS011;9118;48.122;11.546;2022-12-05T02:40:58;22.67;;;12.13;;
17985;SDS011;9118;48.122;11.546;2022-12-05T02:43:31;22.40;;;11.70;;
17985;SDS011;9118;48.122;11.546;2022-12-05T02:46:04;23.20;;;12.27;;
17985;SDS011;9118;48.122;11.546;2022-12-05T02:48:34;22.93;;;11.60;;
17985;SDS011;9118;48.122;11.546;2022-12-05T02:51:04;20.90;;;10.90;;
17985;SDS011;9118;48.122;11.546;2022-12-05T02:53:33;23.57;;;12.07;;
17985;SDS011;9118;48.122;11.546;2022-12-05T02:56:03;19.83;;;10.40;;
17985;SDS011;9118;48.122;11.546;2022-12-05T02:58:33;22.00;;;11.03;;
17985;SDS011;9118;48.122;11.546;2022-12-05T03:01:05;19.67;;;10.63;;
17985;SDS011;9118;48.122;11.546;2022-12-05T03:03:32;26.07;;;12.07;;
17985;SDS011;9118;48.122;11.546;2022-12-05T03:06:01;22.67;;;11.20;;
17985;SDS011;9118;48.122;11.546;2022-12-05T03:08:33;22.43;;;12.10;;
17985;SDS011;9118;48.122;11.546;2022-12-05T03:11:05;22.20;;;11.23;;
17985;SDS011;9118;48.122;11.546;2022-12-05T03:13:34;20.27;;;11.43;;
17985;SDS011;9118;48.122;11.546;2022-12-05T03:16:09;19.43;;;10.10;;
17985;SDS011;9118;48.122;11.546;2022-12-05T03:18:41;20.43;;;11.20;;
17985;SDS011;9118;48.122;11.546;2022-12-05T03:21:14;20.87;;;11.03;;
17985;SDS011;9118;48.122;11.546;2022-12-05T03:23:48;21.23;;;11.63;;
17985;SDS011;9118;48.122;11.546;2022-12-05T03:26:22;23.00;;;11.93;;
17985;SDS011;9118;48.122;11.546;2022-12-05T03:29:02;23.83;;;11.87;;
17985;SDS011;9118;48.122;11.546;2022-12-05T03:31:40;22.63;;;12.10;;
17985;SDS011;9118;48.122;11.546;2022-12-05T03:34:11;23.07;;;11.23;;
17985;SDS011;9118;48.122;11.546;2022-12-05T03:36:44;23.27;;;12.13;;
17985;SDS011;9118;48.122;11.546;2022-12-05T03:39:16;22.57;;;11.40;;
17985;SDS011;9118;48.122;11.546;2022-12-05T03:41:49;21.17;;;11.60;;
17985;SDS011;9118;48.122;11.546;2022-12-05T03:44:24;18.80;;;10.67;;
17985;SDS011;9118;48.122;11.546;2022-12-05T03:46:57;19.03;;;10.73;;
17985;SDS011;9118;48.122;11.546;2022-12-05T03:49:29;18.23;;;10.60;;
17985;SDS011;9118;48.122;11.546;2022-12-05T03:52:02;21.23;;;11.50;;
17985;SDS011;9118;48.122;11.546;2022-12-05T03:54:34;19.80;;;10.80;;
17985;SDS011;9118;48.122;11.546;2022-12-05T03:57:04;20.17;;;11.10;;
17985;SDS011;9118;48.122;11.546;2022-12-05T03:59:36;21.17;;;11.23;;
17985;SDS011;9118;48.122;11.546;2022-12-05T04:02:09;21.50;;;11.57;;
17985;SDS011;9118;48.122;11.546;2022-12-05T04:04:41;23.83;;;11.47;;
17985;SDS011;9118;48.122;11.546;2022-12-05T04:07:12;19.50;;;11.07;;
17985;SDS011;9118;48.122;11.546;2022-12-05T04:09:43;20.23;;;11.40;;
17985;SDS011;9118;48.122;11.546;2022-12-05T04:12:13;22.20;;;11.43;;
17985;SDS011;9118;48.122;11.546;2022-12-05T04:14:46;20.97;;;11.73;;
17985;SDS011;9118;48.122;11.546;2022-12-05T04:17:22;20.87;;;11.07;;
17985;SDS011;9118;48.122;11.546;2022-12-05T04:19:55;20.20;;;11.20;;
17985;SDS011;9118;48.122;11.546;2022-12-05T04:22:42;21.83;;;11.20;;
17985;SDS011;9118;48.122;11.546;2022-12-05T04:25:11;20.13;;;11.10;;
17985;SDS011;9118;48.122;11.546;2022-12-05T04:27:58;20.80;;;11.90;;
17985;SDS011;9118;48.122;11.546;2022-12-05T04:30:41;17.90;;;11.00;;
17985;SDS011;9118;48.122;11.546;2022-12-05T04:33:14;19.80;;;11.30;;
17985;SDS011;9118;48.122;11.546;2022-12-05T04:35:47;18.73;;;11.00;;
17985;SDS011;9118;48.122;11.546;2022-12-05T04:38:20;21.13;;;10.80;;
17985;SDS011;9118;48.122;11.546;2022-12-05T04:40:52;20.13;;;11.23;;
17985;SDS011;9118;48.122;11.546;2022-12-05T04:43:23;20.37;;;11.53;;
17985;SDS011;9118;48.122;11.546;2022-12-05T04:45:51;21.73;;;11.83;;
17985;SDS011;9118;48.122;11.546;2022-12-05T04:48:24;20.70;;;11.17;;
17985;SDS011;9118;48.122;11.546;2022-12-05T04:50:53;21.83;;;11.17;;
17985;SDS011;9118;48.122;11.546;2022-12-05T04:53:22;19.23;;;10.77;;
17985;SDS011;9118;48.122;11.546;2022-12-05T04:55:53;21.80;;;11.57;;
17985;SDS011;9118;48.122;11.546;2022-12-05T04:58:24;18.67;;;10.17;;
17985;SDS011;9118;48.122;11.546;2022-12-05T05:00:54;18.43;;;10.67;;
17985;SDS011;9118;48.122;11.546;2022-12-05T05:03:26;22.97;;;11.97;;
17985;SDS011;9118;48.122;11.546;2022-12-05T05:05:57;19.77;;;11.83;;
17985;SDS011;9118;48.122;11.546;2022-12-05T05:08:25;22.37;;;11.77;;
17985;SDS011;9118;48.122;11.546;2022-12-05T05:10:56;19.73;;;11.10;;
17985;SDS011;9118;48.122;11.546;2022-12-05T05:13:32;21.53;;;11.20;;
17985;SDS011;9118;48.122;11.546;2022-12-05T05:15:59;22.47;;;10.97;;
17985;SDS011;9118;48.122;11.546;2022-12-05T05:18:28;21.47;;;12.17;;
17985;SDS011;9118;48.122;11.546;2022-12-05T05:20:55;22.80;;;11.63;;
17985;SDS011;9118;48.122;11.546;2022-12-05T05:23:22;19.27;;;10.87;;
17985;SDS011;9118;48.122;11.546;2022-12-05T05:25:51;20.50;;;11.53;;
17985;SDS011;9118;48.122;11.546;2022-12-05T05:28:19;22.63;;;12.00;;
17985;SDS011;9118;48.122;11.546;2022-12-05T05:30:46;22.33;;;11.20;;
17985;SDS011;9118;48.122;11.546;2022-12-05T05:33:14;19.60;;;11.27;;
17985;SDS011;9118;48.122;11.546;2022-12-05T05:35:42;20.83;;;11.83;;
17985;SDS011;9118;48.122;11.546;2022-12-05T05:38:09;21.87;;;11.67;;
17985;SDS011;9118;48.122;11.546;2022-12-05T05:40:36;22.73;;;12.27;;
17985;SDS011;9118;48.122;11.546;2022-12-05T05:43:03;19.43;;;11.40;;
17985;SDS011;9118;48.122;11.546;2022-12-05T05:45:30;23.43;;;12.47;;
17985;SDS011;9118;48.122;11.546;2022-12-05T05:47:57;21.80;;;11.80;;
17985;SDS011;9118;48.122;11.546;2022-12-05T05:50:24;21.17;;;11.47;;
17985;SDS011;9118;48.122;11.546;2022-12-05T05:52:52;22.90;;;11.80;;
17985;SDS011;9118;48.122;11.546;2022-12-05T05:55:20;24.83;;;12.53;;
17985;SDS011;9118;48.122;11.546;2022-12-05T05:57:47;22.73;;;12.00;;
17985;SDS011;9118;48.122;11.546;2022-12-05T06:00:14;22.30;;;12.27;;
17985;SDS011;9118;48.122;11.546;2022-12-05T06:02:41;21.50;;;11.60;;
17985;SDS011;9118;48.122;11.546;2022-12-05T06:05:08;23.57;;;11.90;;
17985;SDS011;9118;48.122;11.546;2022-12-05T06:07:35;23.83;;;12.13;;
17985;SDS011;9118;48.122;11.546;2022-12-05T06:10:04;22.13;;;11.50;;
17985;SDS011;9118;48.122;11.546;2022-12-05T06:12:32;24.70;;;12.63;;
17985;SDS011;9118;48.122;11.546;2022-12-05T06:14:59;26.00;;;12.60;;
17985;SDS011;9118;48.122;11.546;2022-12-05T06:17:26;21.77;;;11.50;;
17985;SDS011;9118;48.122;11.546;2022-12-05T06:19:53;26.70;;;13.47;;
17985;SDS011;9118;48.122;11.546;2022-12-05T06:22:20;22.17;;;12.33;;
17985;SDS011;9118;48.122;11.546;2022-12-05T06:24:47;22.63;;;11.80;;
17985;SDS011;9118;48.122;11.546;2022-12-05T06:27:16;23.73;;;12.33;;
17985;SDS011;9118;48.122;11.546;2022-12-05T06:29:43;21.93;;;12.37;;
17985;SDS011;9118;48.122;11.546;2022-12-05T06:32:10;24.83;;;12.20;;
17985;SDS011;9118;48.122;11.546;2022-12-05T06:34:37;18.33;;;11.07;;
17985;SDS011;9118;48.122;11.546;2022-12-05T06:37:04;23.13;;;12.40;;
17985;SDS011;9118;48.122;11.546;2022-12-05T06:39:31;24.07;;;12.10;;
17985;SDS011;9118;48.122;11.546;2022-12-05T06:41:58;20.87;;;11.93;;
17985;SDS011;9118;48.122;11.546;2022-12-05T06:44:26;20.37;;;11.30;;
17985;SDS011;9118;48.122;11.546;2022-12-05T06:46:54;19.57;;;12.07;;
17985;SDS011;9118;48.122;11.546;2022-12-05T06:49:21;20.93;;;11.37;;
17985;SDS011;9118;48.122;11.546;2022-12-05T06:51:50;21.83;;;12.07;;
17985;SDS011;9118;48.122;11.546;2022-12-05T06:54:18;20.93;;;11.80;;
17985;SDS011;9118;48.122;11.546;2022-12-05T06:56:45;19.67;;;11.33;;
17985;SDS011;9118;48.122;11.546;2022-12-05T06:59:12;20.87;;;11.67;;
17985;SDS011;9118;48.122;11.546;2022-12-05T07:01:40;25.77;;;12.67;;
17985;SDS011;9118;48.122;11.546;2022-12-05T07:04:10;24.23;;;11.67;;
17985;SDS011;9118;48.122;11.546;2022-12-05T07:06:39;19.13;;;10.50;;
17985;SDS011;9118;48.122;11.546;2022-12-05T07:09:07;22.60;;;11.27;;
17985;SDS011;9118;48.122;11.546;2022-12-05T07:11:36;18.63;;;10.67;;
17985;SDS011;9118;48.122;11.546;2022-12-05T07:14:03;18.07;;;10.73;;
17985;SDS011;9118;48.122;11.546;2022-12-05T07:16:31;16.37;;;9.90;;
17985;SDS011;9118;48.122;11.546;2022-12-05T07:19:00;18.17;;;11.20;;
17985;SDS011;9118;48.122;11.546;2022-12-05T07:21:27;17.60;;;11.07;;
17985;SDS011;9118;48.122;11.546;2022-12-05T07:23:54;17.97;;;10.20;;
17985;SDS011;9118;48.122;11.546;2022-12-05T07:26:22;15.77;;;9.90;;
17985;SDS011;9118;48.122;11.546;2022-12-05T07:28:50;18.17;;;10.47;;
17985;SDS011;9118;48.122;11.546;2022-12-05T07:31:19;18.27;;;11.00;;
17985;SDS011;9118;48.122;11.546;2022-12-05T07:33:48;17.50;;;10.37;;
17985;SDS011;9118;48.122;11.546;2022-12-05T07:36:20;18.93;;;10.73;;
17985;SDS011;9118;48.122;11.546;2022-12-05T07:38:47;19.80;;;11.43;;
17985;SDS011;9118;48.122;11.546;2022-12-05T07:41:20;17.47;;;9.80;;
17985;SDS011;9118;48.122;11.546;2022-12-05T07:43:49;22.73;;;10.53;;
17985;SDS011;9118;48.122;11.546;2022-12-05T07:46:17;22.03;;;10.90;;
17985;SDS011;9118;48.122;11.546;2022-12-05T07:48:44;18.10;;;10.50;;
17985;SDS011;9118;48.122;11.546;2022-12-05T07:51:15;19.10;;;10.20;;
17985;SDS011;9118;48.122;11.546;2022-12-05T07:53:44;17.47;;;10.10;;
17985;SDS011;9118;48.122;11.546;2022-12-05T07:56:12;19.30;;;11.33;;
17985;SDS011;9118;48.122;11.546;2022-12-05T07:58:41;19.07;;;10.70;;
17985;SDS011;9118;48.122;11.546;2022-12-05T08:01:10;17.40;;;10.47;;
17985;SDS011;9118;48.122;11.546;2022-12-05T08:03:39;18.47;;;10.37;;
17985;SDS011;9118;48.122;11.546;2022-12-05T08:06:08;19.10;;;11.07;;
17985;SDS011;9118;48.122;11.546;2022-12-05T08:08:38;18.50;;;11.30;;
17985;SDS011;9118;48.122;11.546;2022-12-05T08:11:06;15.77;;;10.17;;
17985;SDS011;9118;48.122;11.546;2022-12-05T08:13:34;17.03;;;9.93;;
17985;SDS011;9118;48.122;11.546;2022-12-05T08:16:02;21.67;;;11.50;;
17985;SDS011;9118;48.122;11.546;2022-12-05T08:18:31;18.97;;;11.27;;
17985;SDS011;9118;48.122;11.546;2022-12-05T08:21:02;16.73;;;10.57;;
17985;SDS011;9118;48.122;11.546;2022-12-05T08:23:29;18.97;;;11.07;;
17985;SDS011;9118;48.122;11.546;2022-12-05T08:26:01;21.97;;;12.17;;
17985;SDS011;9118;48.122;11.546;2022-12-05T08:28:29;27.97;;;15.83;;
17985;SDS011;9118;48.122;11.546;2022-12-05T08:31:01;18.13;;;11.20;;
17985;SDS011;9118;48.122;11.546;2022-12-05T08:33:30;19.13;;;11.43;;
17985;SDS011;9118;48.122;11.546;2022-12-05T08:35:58;23.17;;;13.33;;
17985;SDS011;9118;48.122;11.546;2022-12-05T08:38:26;19.93;;;12.33;;
17985;SDS011;9118;48.122;11.546;2022-12-05T08:40:53;19.77;;;11.83;;
17985;SDS011;9118;48.122;11.546;2022-12-05T08:43:24;21.47;;;13.33;;
17985;SDS011;9118;48.122;11.546;2022-12-05T08:45:51;21.50;;;12.30;;
17985;SDS011;9118;48.122;11.546;2022-12-05T08:48:19;22.27;;;14.20;;
17985;SDS011;9118;48.122;11.546;2022-12-05T08:50:47;18.97;;;11.60;;
17985;SDS011;9118;48.122;11.546;2022-12-05T08:53:17;20.83;;;12.90;;
17985;SDS011;9118;48.122;11.546;2022-12-05T08:55:45;20.37;;;12.37;;
17985;SDS011;9118;48.122;11.546;2022-12-05T08:58:13;25.93;;;14.73;;
17985;SDS011;9118;48.122;11.546;2022-12-05T09:00:43;23.13;;;14.70;;
17985;SDS011;9118;48.122;11.546;2022-12-05T09:03:10;22.47;;;14.53;;
17985;SDS011;9118;48.122;11.546;2022-12-05T09:05:40;17.33;;;10.97;;
17985;SDS011;9118;48.122;11.546;2022-12-05T09:08:08;17.27;;;11.13;;
17985;SDS011;9118;48.122;11.546;2022-12-05T09:10:36;18.23;;;10.77;;
17985;SDS011;9118;48.122;11.546;2022-12-05T09:13:05;19.53;;;10.73;;
17985;SDS011;9118;48.122;11.546;2022-12-05T09:15:36;16.67;;;10.97;;
17985;SDS011;9118;48.122;11.546;2022-12-05T09:18:05;18.07;;;11.30;;
17985;SDS011;9118;48.122;11.546;2022-12-05T09:20:32;17.93;;;11.00;;
17985;SDS011;9118;48.122;11.546;2022-12-05T09:22:59;17.57;;;9.97;;
17985;SDS011;9118;48.122;11.546;2022-12-05T09:25:26;19.10;;;11.40;;
17985;SDS011;9118;48.122;11.546;2022-12-05T09:27:53;15.97;;;10.33;;
17985;SDS011;9118;48.122;11.546;2022-12-05T09:30:20;14.37;;;9.53;;
17985;SDS011;9118;48.122;11.546;2022-12-05T09:32:48;17.10;;;10.17;;
17985;SDS011;9118;48.122;11.546;2022-12-05T09:35:16;16.27;;;10.47;;
17985;SDS011;9118;48.122;11.546;2022-12-05T09:37:47;16.53;;;10.03;;
17985;SDS011;9118;48.122;11.546;2022-12-05T09:40:15;15.63;;;10.13;;
17985;SDS011;9118;48.122;11.546;2022-12-05T09:42:48;15.83;;;9.80;;
17985;SDS011;9118;48.122;11.546;2022-12-05T09:45:24;15.80;;;9.87;;
17985;SDS011;9118;48.122;11.546;2022-12-05T09:47:58;16.73;;;10.53;;
17985;SDS011;9118;48.122;11.546;2022-12-05T09:50:33;15.37;;;10.13;;
17985;SDS011;9118;48.122;11.546;2022-12-05T09:53:12;16.50;;;10.97;;
17985;SDS011;9118;48.122;11.546;2022-12-05T09:55:50;16.60;;;10.70;;
17985;SDS011;9118;48.122;11.546;2022-12-05T09:58:33;15.50;;;10.10;;
17985;SDS011;9118;48.122;11.546;2022-12-05T10:01:12;28.00;;;18.73;;
17985;SDS011;9118;48.122;11.546;2022-12-05T10:03:58;16.63;;;10.83;;
17985;SDS011;9118;48.122;11.546;2022-12-05T10:06:37;22.00;;;13.77;;
17985;SDS011;9118;48.122;11.546;2022-12-05T10:09:13;15.83;;;10.60;;
17985;SDS011;9118;48.122;11.546;2022-12-05T10:11:55;18.70;;;10.97;;
17985;SDS011;9118;48.122;11.546;2022-12-05T10:14:30;19.07;;;11.50;;
17985;SDS011;9118;48.122;11.546;2022-12-05T10:17:08;16.57;;;10.97;;
17985;SDS011;9118;48.122;11.546;2022-12-05T10:19:43;16.80;;;10.37;;
17985;SDS011;9118;48.122;11.546;2022-12-05T10:22:16;17.30;;;11.13;;
17985;SDS011;9118;48.122;11.546;2022-12-05T10:24:46;17.07;;;10.77;;
17985;SDS011;9118;48.122;11.546;2022-12-05T10:27:17;17.93;;;10.43;;
17985;SDS011;9118;48.122;11.546;2022-12-05T10:29:47;15.73;;;10.70;;
17985;SDS011;9118;48.122;11.546;2022-12-05T10:32:20;16.27;;;10.70;;
17985;SDS011;9118;48.122;11.546;2022-12-05T10:34:52;17.63;;;10.87;;
17985;SDS011;9118;48.122;11.546;2022-12-05T10:37:26;15.63;;;10.37;;
17985;SDS011;9118;48.122;11.546;2022-12-05T10:39:55;16.27;;;10.40;;
17985;SDS011;9118;48.122;11.546;2022-12-05T10:42:24;16.73;;;11.23;;
17985;SDS011;9118;48.122;11.546;2022-12-05T10:44:55;15.67;;;10.93;;
17985;SDS011;9118;48.122;11.546;2022-12-05T10:47:23;16.57;;;9.90;;
17985;SDS011;9118;48.122;11.546;2022-12-05T10:49:51;18.47;;;10.77;;
17985;SDS011;9118;48.122;11.546;2022-12-05T10:52:19;16.77;;;11.00;;
17985;SDS011;9118;48.122;11.546;2022-12-05T10:54:48;16.40;;;10.77;;
17985;SDS011;9118;48.122;11.546;2022-12-05T10:57:22;17.90;;;11.33;;
17985;SDS011;9118;48.122;11.546;2022-12-05T10:59:51;17.17;;;11.40;;
17985;SDS011;9118;48.122;11.546;2022-12-05T11:02:20;16.93;;;10.60;;
17985;SDS011;9118;48.122;11.546;2022-12-05T11:04:50;15.20;;;10.13;;
17985;SDS011;9118;48.122;11.546;2022-12-05T11:07:23;16.07;;;11.43;;
17985;SDS011;9118;48.122;11.546;2022-12-05T11:09:55;17.43;;;10.43;;
17985;SDS011;9118;48.122;11.546;2022-12-05T11:12:23;20.13;;;10.97;;
17985;SDS011;9118;48.122;11.546;2022-12-05T11:14:54;17.43;;;11.30;;
17985;SDS011;9118;48.122;11.546;2022-12-05T11:17:24;17.27;;;10.23;;
17985;SDS011;9118;48.122;11.546;2022-12-05T11:19:55;16.53;;;10.27;;
17985;SDS011;9118;48.122;11.546;2022-12-05T11:22:29;15.83;;;9.70;;
17985;SDS011;9118;48.122;11.546;2022-12-05T11:24:58;14.70;;;9.83;;
17985;SDS011;9118;48.122;11.546;2022-12-05T11:27:27;15.17;;;9.83;;
17985;SDS011;9118;48.122;11.546;2022-12-05T11:29:57;15.67;;;9.87;;
17985;SDS011;9118;48.122;11.546;2022-12-05T11:32:26;13.60;;;9.30;;
17985;SDS011;9118;48.122;11.546;2022-12-05T11:34:56;14.60;;;9.93;;
17985;SDS011;9118;48.122;11.546;2022-12-05T11:37:34;15.83;;;9.63;;
17985;SDS011;9118;48.122;11.546;2022-12-05T11:40:13;16.23;;;9.80;;
17985;SDS011;9118;48.122;11.546;2022-12-05T11:42:45;15.27;;;9.93;;
17985;SDS011;9118;48.122;11.546;2022-12-05T11:45:36;15.97;;;9.80;;
17985;SDS011;9118;48.122;11.546;2022-12-05T11:48:27;13.57;;;9.37;;
17985;SDS011;9118;48.122;11.546;2022-12-05T11:51:16;15.83;;;9.60;;
17985;SDS011;9118;48.122;11.546;2022-12-05T11:57:12;15.93;;;10.57;;
17985;SDS011;9118;48.122;11.546;2022-12-05T12:00:00;14.80;;;9.90;;
17985;SDS011;9118;48.122;11.546;2022-12-05T12:02:42;14.77;;;10.00;;
17985;SDS011;9118;48.122;11.546;2022-12-05T12:05:30;16.53;;;10.27;;
17985;SDS011;9118;48.122;11.546;2022-12-05T12:08:06;14.27;;;9.77;;
17985;SDS011;9118;48.122;11.546;2022-12-05T12:10:46;13.87;;;9.37;;
17985;SDS011;9118;48.122;11.546;2022-12-05T12:13:24;13.10;;;9.27;;
17985;SDS011;9118;48.122;11.546;2022-12-05T12:16:04;15.87;;;9.90;;
17985;SDS011;9118;48.122;11.546;2022-12-05T12:18:44;19.07;;;9.77;;
17985;SDS011;9118;48.122;11.546;2022-12-05T12:21:27;12.30;;;8.50;;
17985;SDS011;9118;48.122;11.546;2022-12-05T12:24:07;11.87;;;8.60;;
17985;SDS011;9118;48.122;11.546;2022-12-05T12:26:46;12.33;;;8.30;;
17985;SDS011;9118;48.122;11.546;2022-12-05T12:29:26;14.10;;;8.80;;
17985;SDS011;9118;48.122;11.546;2022-12-05T12:32:12;14.00;;;8.90;;
17985;SDS011;9118;48.122;11.546;2022-12-05T12:34:58;12.03;;;8.30;;
17985;SDS011;9118;48.122;11.546;2022-12-05T12:37:51;11.67;;;8.47;;
17985;SDS011;9118;48.122;11.546;2022-12-05T12:40:46;11.40;;;8.17;;
17985;SDS011;9118;48.122;11.546;2022-12-05T12:43:20;10.40;;;7.27;;
17985;SDS011;9118;48.122;11.546;2022-12-05T12:46:14;10.37;;;7.90;;
17985;SDS011;9118;48.122;11.546;2022-12-05T12:48:59;10.83;;;7.77;;
17985;SDS011;9118;48.122;11.546;2022-12-05T12:51:45;8.87;;;6.60;;
17985;SDS011;9118;48.122;11.546;2022-12-05T12:54:26;11.77;;;7.47;;
17985;SDS011;9118;48.122;11.546;2022-12-05T12:57:14;10.27;;;7.20;;
17985;SDS011;9118;48.122;11.546;2022-12-05T12:59:52;9.37;;;6.87;;
17985;SDS011;9118;48.122;11.546;2022-12-05T13:02:30;9.77;;;6.33;;
17985;SDS011;9118;48.122;11.546;2022-12-05T13:05:04;8.30;;;6.43;;
17985;SDS011;9118;48.122;11.546;2022-12-05T13:07:38;10.03;;;6.50;;
17985;SDS011;9118;48.122;11.546;2022-12-05T13:10:12;9.77;;;6.20;;
17985;SDS011;9118;48.122;11.546;2022-12-05T13:12:44;8.33;;;5.90;;
17985;SDS011;9118;48.122;11.546;2022-12-05T13:15:15;12.33;;;7.37;;
17985;SDS011;9118;48.122;11.546;2022-12-05T13:17:47;8.70;;;5.57;;
17985;SDS011;9118;48.122;11.546;2022-12-05T13:20:15;8.07;;;5.17;;
17985;SDS011;9118;48.122;11.546;2022-12-05T13:22:44;7.03;;;4.83;;
17985;SDS011;9118;48.122;11.546;2022-12-05T13:25:14;6.87;;;5.37;;
17985;SDS011;9118;48.122;11.546;2022-12-05T13:27:51;4.77;;;4.23;;
17985;SDS011;9118;48.122;11.546;2022-12-05T13:30:21;7.00;;;5.60;;
17985;SDS011;9118;48.122;11.546;2022-12-05T13:32:55;5.10;;;3.97;;
17985;SDS011;9118;48.122;11.546;2022-12-05T13:35:27;4.87;;;3.90;;
17985;SDS011;9118;48.122;11.546;2022-12-05T13:38:19;6.40;;;4.17;;
17985;SDS011;9118;48.122;11.546;2022-12-05T13:41:06;5.73;;;4.53;;
17985;SDS011;9118;48.122;11.546;2022-12-05T13:43:51;3.90;;;3.50;;
17985;SDS011;9118;48.122;11.546;2022-12-05T13:46:22;6.43;;;4.10;;
17985;SDS011;9118;48.122;11.546;2022-12-05T13:48:58;6.07;;;4.00;;
17985;SDS011;9118;48.122;11.546;2022-12-05T13:51:33;5.67;;;4.27;;
17985;SDS011;9118;48.122;11.546;2022-12-05T13:54:04;5.10;;;4.13;;
17985;SDS011;9118;48.122;11.546;2022-12-05T13:56:45;5.80;;;4.00;;
17985;SDS011;9118;48.122;11.546;2022-12-05T14:05:38;6.57;;;4.50;;
17985;SDS011;9118;48.122;11.546;2022-12-05T14:11:16;5.57;;;4.50;;
17985;SDS011;9118;48.122;11.546;2022-12-05T14:13:43;7.13;;;5.10;;
17985;SDS011;9118;48.122;11.546;2022-12-05T14:19:11;6.13;;;5.10;;
17985;SDS011;9118;48.122;11.546;2022-12-05T14:21:52;7.77;;;5.17;;
17985;SDS011;9118;48.122;11.546;2022-12-05T14:24:26;6.90;;;5.20;;
17985;SDS011;9118;48.122;11.546;2022-12-05T14:27:02;6.40;;;4.70;;
17985;SDS011;9118;48.122;11.546;2022-12-05T14:29:36;5.67;;;4.43;;
17985;SDS011;9118;48.122;11.546;2022-12-05T14:32:09;7.63;;;5.30;;
17985;SDS011;9118;48.122;11.546;2022-12-05T14:34:48;6.70;;;5.17;;
17985;SDS011;9118;48.122;11.546;2022-12-05T14:37:25;7.77;;;4.97;;
17985;SDS011;9118;48.122;11.546;2022-12-05T14:39:54;5.63;;;5.00;;
17985;SDS011;9118;48.122;11.546;2022-12-05T14:42:29;7.03;;;5.20;;
17985;SDS011;9118;48.122;11.546;2022-12-05T14:45:16;6.90;;;4.93;;
17985;SDS011;9118;48.122;11.546;2022-12-05T14:47:50;9.43;;;5.30;;
17985;SDS011;9118;48.122;11.546;2022-12-05T14:50:32;6.80;;;5.73;;
17985;SDS011;9118;48.122;11.546;2022-12-05T14:53:26;6.07;;;4.70;;
17985;SDS011;9118;48.122;11.546;2022-12-05T14:56:01;6.70;;;4.97;;
17985;SDS011;9118;48.122;11.546;2022-12-05T14:58:34;7.07;;;4.80;;
17985;SDS011;9118;48.122;11.546;2022-12-05T15:01:05;7.67;;;4.73;;
17985;SDS011;9118;48.122;11.546;2022-12-05T15:03:39;7.33;;;4.97;;
17985;SDS011;9118;48.122;11.546;2022-12-05T15:06:10;6.17;;;4.57;;
17985;SDS011;9118;48.122;11.546;2022-12-05T15:08:44;5.87;;;4.90;;